sensor_id;sensor_type;location;lat;lon;timestamp;pressure;altitude;pressure_sealevel;temperature;humidity
22550;BME280;11441;57.164;-2.120;2023-03-14T00:00:12;98557.34;;;1.48;100.00
22550;BME280;11441;57.164;-2.120;2023-03-14T00:02:40;98559.44;;;1.39;100.00
22550;BME280;11441;57.164;-2.120;2023-03-14T00:05:08;98559.66;;;1.34;100.00
22550;BME280;11441;57.164;-2.120;2023-03-14T00:07:37;98568.00;;;1.41;100.00
22550;BME280;11441;57.164;-2.120;2023-03-14T00:10:06;98564.22;;;1.29;100.00
22550;BME280;11441;57.164;-2.120;2023-03-14T00:12:33;98579.81;;;1.33;100.00
22550;BME280;11441;57.164;-2.120;2023-03-14T00:18:05;98578.13;;;1.28;100.00
22550;BME280;11441;57.164;-2.120;2023-03-14T00:20:32;98589.00;;;1.16;100.00
22550;BME280;11441;57.164;-2.120;2023-03-14T00:22:58;98591.59;;;1.24;100.00
22550;BME280;11441;57.164;-2.120;2023-03-14T00:25:25;98585.44;;;1.40;100.00
22550;BME280;11441;57.164;-2.120;2023-03-14T00:27:52;98601.66;;;1.24;100.00
22550;BME280;11441;57.164;-2.120;2023-03-14T00:30:19;98609.06;;;1.27;100.00
22550;BME280;11441;57.164;-2.120;2023-03-14T00:32:47;98583.81;;;1.10;100.00
22550;BME280;11441;57.164;-2.120;2023-03-14T00:35:14;98610.69;;;1.16;100.00
22550;BME280;11441;57.164;-2.120;2023-03-14T00:37:41;98608.00;;;1.03;100.00
22550;BME280;11441;57.164;-2.120;2023-03-14T00:40:09;98619.03;;;1.23;100.00
22550;BME280;11441;57.164;-2.120;2023-03-14T00:42:36;98611.22;;;1.34;100.00
22550;BME280;11441;57.164;-2.120;2023-03-14T00:45:03;98614.16;;;1.28;100.00
22550;BME280;11441;57.164;-2.120;2023-03-14T00:47:32;98619.72;;;1.20;100.00
22550;BME280;11441;57.164;-2.120;2023-03-14T00:49:59;98613.06;;;1.17;100.00
22550;BME280;11441;57.164;-2.120;2023-03-14T00:52:26;98618.88;;;1.03;100.00
22550;BME280;11441;57.164;-2.120;2023-03-14T00:54:53;98623.72;;;1.10;100.00
22550;BME280;11441;57.164;-2.120;2023-03-14T00:57:20;98630.38;;;1.00;100.00
22550;BME280;11441;57.164;-2.120;2023-03-14T00:59:46;98632.19;;;1.08;100.00
22550;BME280;11441;57.164;-2.120;2023-03-14T01:02:13;98633.63;;;1.06;100.00
22550;BME280;11441;57.164;-2.120;2023-03-14T01:04:40;98640.44;;;1.00;100.00
22550;BME280;11441;57.164;-2.120;2023-03-14T01:07:09;98639.50;;;1.08;100.00
22550;BME280;11441;57.164;-2.120;2023-03-14T01:09:54;98650.94;;;1.01;100.00
22550;BME280;11441;57.164;-2.120;2023-03-14T01:12:21;98645.63;;;1.05;100.00
22550;BME280;11441;57.164;-2.120;2023-03-14T01:14:48;98649.00;;;1.14;100.00
22550;BME280;11441;57.164;-2.120;2023-03-14T01:17:15;98656.94;;;1.07;100.00
22550;BME280;11441;57.164;-2.120;2023-03-14T01:19:41;98651.06;;;0.92;100.00
22550;BME280;11441;57.164;-2.120;2023-03-14T01:22:08;98652.63;;;0.93;100.00
22550;BME280;11441;57.164;-2.120;2023-03-14T01:24:37;98659.44;;;1.00;100.00
22550;BME280;11441;57.164;-2.120;2023-03-14T01:27:04;98662.38;;;0.94;100.00
22550;BME280;11441;57.164;-2.120;2023-03-14T01:29:31;98668.78;;;0.90;100.00
22550;BME280;11441;57.164;-2.120;2023-03-14T01:31:58;98674.22;;;0.78;100.00
22550;BME280;11441;57.164;-2.120;2023-03-14T01:34:24;98679.19;;;0.75;100.00
22550;BME280;11441;57.164;-2.120;2023-03-14T01:36:51;98671.06;;;0.88;100.00
22550;BME280;11441;57.164;-2.120;2023-03-14T01:39:18;98693.31;;;0.81;100.00
22550;BME280;11441;57.164;-2.120;2023-03-14T01:41:45;98691.69;;;0.68;100.00
22550;BME280;11441;57.164;-2.120;2023-03-14T01:44:12;98697.00;;;0.77;100.00
22550;BME280;11441;57.164;-2.120;2023-03-14T01:46:43;98707.53;;;0.78;100.00
22550;BME280;11441;57.164;-2.120;2023-03-14T01:49:59;98698.84;;;0.85;100.00
22550;BME280;11441;57.164;-2.120;2023-03-14T01:52:38;98708.06;;;0.71;100.00
22550;BME280;11441;57.164;-2.120;2023-03-14T01:55:15;98711.81;;;0.79;100.00
22550;BME280;11441;57.164;-2.120;2023-03-14T01:57:47;98719.00;;;0.63;100.00
22550;BME280;11441;57.164;-2.120;2023-03-14T02:00:20;98724.81;;;0.61;100.00
22550;BME280;11441;57.164;-2.120;2023-03-14T02:02:50;98723.31;;;0.64;100.00
22550;BME280;11441;57.164;-2.120;2023-03-14T02:05:23;98705.09;;;0.40;100.00
22550;BME280;11441;57.164;-2.120;2023-03-14T02:08:05;98723.31;;;0.64;100.00
22550;BME280;11441;57.164;-2.120;2023-03-14T02:10:48;98718.75;;;0.43;100.00
22550;BME280;11441;57.164;-2.120;2023-03-14T02:13:20;98729.84;;;0.50;100.00
22550;BME280;11441;57.164;-2.120;2023-03-14T02:16:14;98731.53;;;0.55;100.00
22550;BME280;11441;57.164;-2.120;2023-03-14T02:18:52;98733.47;;;0.54;100.00
22550;BME280;11441;57.164;-2.120;2023-03-14T02:27:20;98745.88;;;0.55;100.00
22550;BME280;11441;57.164;-2.120;2023-03-14T02:30:01;98744.88;;;0.60;100.00
22550;BME280;11441;57.164;-2.120;2023-03-14T02:32:30;98752.09;;;0.56;100.00
22550;BME280;11441;57.164;-2.120;2023-03-14T02:35:01;98751.81;;;0.36;100.00
22550;BME280;11441;57.164;-2.120;2023-03-14T02:37:52;98744.41;;;0.12;100.00
22550;BME280;11441;57.164;-2.120;2023-03-14T02:40:23;98750.03;;;0.07;100.00
22550;BME280;11441;57.164;-2.120;2023-03-14T02:42:52;98752.75;;;0.07;100.00
22550;BME280;11441;57.164;-2.120;2023-03-14T02:47:58;98750.47;;;0.09;100.00
22550;BME280;11441;57.164;-2.120;2023-03-14T02:50:31;98752.88;;;-0.10;100.00
22550;BME280;11441;57.164;-2.120;2023-03-14T02:53:00;98759.34;;;-0.03;100.00
22550;BME280;11441;57.164;-2.120;2023-03-14T02:55:27;98764.28;;;-0.05;100.00
22550;BME280;11441;57.164;-2.120;2023-03-14T02:57:58;98773.06;;;-0.08;100.00
22550;BME280;11441;57.164;-2.120;2023-03-14T03:00:25;98778.88;;;0.03;100.00
22550;BME280;11441;57.164;-2.120;2023-03-14T03:02:52;98779.94;;;-0.10;100.00
22550;BME280;11441;57.164;-2.120;2023-03-14T03:05:19;98791.44;;;-0.13;100.00
22550;BME280;11441;57.164;-2.120;2023-03-14T03:07:46;98787.38;;;-0.07;100.00
22550;BME280;11441;57.164;-2.120;2023-03-14T03:10:13;98783.03;;;0.01;100.00
22550;BME280;11441;57.164;-2.120;2023-03-14T03:12:40;98795.25;;;0.07;100.00
22550;BME280;11441;57.164;-2.120;2023-03-14T03:15:07;98791.34;;;0.16;100.00
22550;BME280;11441;57.164;-2.120;2023-03-14T03:17:36;98795.84;;;0.12;100.00
22550;BME280;11441;57.164;-2.120;2023-03-14T03:20:24;98794.50;;;0.18;100.00
22550;BME280;11441;57.164;-2.120;2023-03-14T03:22:51;98803.69;;;0.05;100.00
22550;BME280;11441;57.164;-2.120;2023-03-14T03:25:18;98809.59;;;0.07;100.00
22550;BME280;11441;57.164;-2.120;2023-03-14T03:27:44;98801.94;;;0.09;100.00
22550;BME280;11441;57.164;-2.120;2023-03-14T03:30:15;98800.06;;;0.01;100.00
22550;BME280;11441;57.164;-2.120;2023-03-14T03:32:43;98813.72;;;0.05;100.00
22550;BME280;11441;57.164;-2.120;2023-03-14T03:35:11;98800.53;;;0.03;100.00
22550;BME280;11441;57.164;-2.120;2023-03-14T03:37:38;98815.53;;;0.01;100.00
22550;BME280;11441;57.164;-2.120;2023-03-14T03:40:07;98809.59;;;0.07;100.00
22550;BME280;11441;57.164;-2.120;2023-03-14T03:42:35;98800.97;;;0.05;100.00
22550;BME280;11441;57.164;-2.120;2023-03-14T03:45:05;98816.97;;;-0.02;100.00
22550;BME280;11441;57.164;-2.120;2023-03-14T03:47:37;98817.72;;;0.07;100.00
22550;BME280;11441;57.164;-2.120;2023-03-14T03:50:04;98831.72;;;0.09;100.00
22550;BME280;11441;57.164;-2.120;2023-03-14T03:52:31;98827.91;;;0.02;100.00
22550;BME280;11441;57.164;-2.120;2023-03-14T03:55:17;98841.31;;;-0.02;100.00
22550;BME280;11441;57.164;-2.120;2023-03-14T03:58:02;98826.22;;;-0.03;100.00
22550;BME280;11441;57.164;-2.120;2023-03-14T04:00:47;98840.16;;;-0.13;100.00
22550;BME280;11441;57.164;-2.120;2023-03-14T04:03:14;98848.72;;;-0.11;100.00
22550;BME280;11441;57.164;-2.120;2023-03-14T04:05:42;98858.19;;;0.04;100.00
22550;BME280;11441;57.164;-2.120;2023-03-14T04:08:09;98860.34;;;-0.11;100.00
22550;BME280;11441;57.164;-2.120;2023-03-14T04:10:36;98866.69;;;-0.07;100.00
22550;BME280;11441;57.164;-2.120;2023-03-14T04:13:17;98878.09;;;-0.22;100.00
22550;BME280;11441;57.164;-2.120;2023-03-14T04:15:50;98875.31;;;-0.13;100.00
22550;BME280;11441;57.164;-2.120;2023-03-14T04:18:22;98889.88;;;-0.27;100.00
22550;BME280;11441;57.164;-2.120;2023-03-14T04:21:09;98877.28;;;-0.23;100.00
22550;BME280;11441;57.164;-2.120;2023-03-14T04:23:46;98887.41;;;-0.41;100.00
22550;BME280;11441;57.164;-2.120;2023-03-14T04:26:14;98893.53;;;-0.61;100.00
22550;BME280;11441;57.164;-2.120;2023-03-14T04:28:40;98898.72;;;-0.47;100.00
22550;BME280;11441;57.164;-2.120;2023-03-14T04:31:14;98897.16;;;-0.48;100.00
22550;BME280;11441;57.164;-2.120;2023-03-14T04:33:42;98904.97;;;-0.55;100.00
22550;BME280;11441;57.164;-2.120;2023-03-14T04:36:30;98900.47;;;-0.43;100.00
22550;BME280;11441;57.164;-2.120;2023-03-14T04:39:02;98895.56;;;-0.49;100.00
22550;BME280;11441;57.164;-2.120;2023-03-14T04:41:32;98894.25;;;-0.43;100.00
22550;BME280;11441;57.164;-2.120;2023-03-14T04:43:59;98890.69;;;-0.35;100.00
22550;BME280;11441;57.164;-2.120;2023-03-14T04:46:26;98912.09;;;-0.51;100.00
22550;BME280;11441;57.164;-2.120;2023-03-14T04:48:52;98909.41;;;-0.51;100.00
22550;BME280;11441;57.164;-2.120;2023-03-14T04:51:19;98903.63;;;-0.41;100.00
22550;BME280;11441;57.164;-2.120;2023-03-14T04:53:49;98919.41;;;-0.13;100.00
22550;BME280;11441;57.164;-2.120;2023-03-14T04:56:16;98928.31;;;-0.12;100.00
22550;BME280;11441;57.164;-2.120;2023-03-14T04:58:43;98927.66;;;-0.09;100.00
22550;BME280;11441;57.164;-2.120;2023-03-14T05:01:14;98938.94;;;-0.07;100.00
22550;BME280;11441;57.164;-2.120;2023-03-14T05:03:54;98935.50;;;-0.16;100.00
22550;BME280;11441;57.164;-2.120;2023-03-14T05:06:44;98935.94;;;-0.06;100.00
22550;BME280;11441;57.164;-2.120;2023-03-14T05:09:30;98938.00;;;-0.41;100.00
22550;BME280;11441;57.164;-2.120;2023-03-14T05:12:12;98937.56;;;-0.52;100.00
22550;BME280;11441;57.164;-2.120;2023-03-14T05:14:52;98947.59;;;-0.52;100.00
22550;BME280;11441;57.164;-2.120;2023-03-14T05:17:48;98942.00;;;-0.47;100.00
22550;BME280;11441;57.164;-2.120;2023-03-14T05:20:43;98938.03;;;-0.50;100.00
22550;BME280;11441;57.164;-2.120;2023-03-14T05:23:18;98942.97;;;-0.43;100.00
22550;BME280;11441;57.164;-2.120;2023-03-14T05:26:12;98946.03;;;-0.62;100.00
22550;BME280;11441;57.164;-2.120;2023-03-14T05:29:02;98953.00;;;-0.61;100.00
22550;BME280;11441;57.164;-2.120;2023-03-14T05:31:44;98958.56;;;-0.58;100.00
22550;BME280;11441;57.164;-2.120;2023-03-14T05:34:23;98959.50;;;-0.45;100.00
22550;BME280;11441;57.164;-2.120;2023-03-14T05:37:02;98960.16;;;-0.57;100.00
22550;BME280;11441;57.164;-2.120;2023-03-14T05:39:58;98967.66;;;-0.62;100.00
22550;BME280;11441;57.164;-2.120;2023-03-14T05:42:35;98967.59;;;-0.36;100.00
22550;BME280;11441;57.164;-2.120;2023-03-14T05:45:17;98970.28;;;-0.36;100.00
22550;BME280;11441;57.164;-2.120;2023-03-14T05:48:20;98960.16;;;-0.48;100.00
22550;BME280;11441;57.164;-2.120;2023-03-14T05:51:08;98977.44;;;-0.31;100.00
22550;BME280;11441;57.164;-2.120;2023-03-14T05:53:43;98978.81;;;-0.16;100.00
22550;BME280;11441;57.164;-2.120;2023-03-14T05:56:30;98985.53;;;-0.23;100.00
22550;BME280;11441;57.164;-2.120;2023-03-14T05:59:23;98988.09;;;-0.35;100.00
22550;BME280;11441;57.164;-2.120;2023-03-14T06:02:05;98984.13;;;-0.29;100.00
22550;BME280;11441;57.164;-2.120;2023-03-14T06:05:00;98985.44;;;-0.52;100.00
22550;BME280;11441;57.164;-2.120;2023-03-14T06:07:27;98998.34;;;-0.49;100.00
22550;BME280;11441;57.164;-2.120;2023-03-14T06:10:14;99005.44;;;-0.27;100.00
22550;BME280;11441;57.164;-2.120;2023-03-14T06:12:41;99008.88;;;-0.65;100.00
22550;BME280;11441;57.164;-2.120;2023-03-14T06:15:08;99007.63;;;-0.68;100.00
22550;BME280;11441;57.164;-2.120;2023-03-14T06:17:35;99015.56;;;-0.63;100.00
22550;BME280;11441;57.164;-2.120;2023-03-14T06:20:08;99019.06;;;-0.71;100.00
22550;BME280;11441;57.164;-2.120;2023-03-14T06:22:53;99012.38;;;-0.65;100.00
22550;BME280;11441;57.164;-2.120;2023-03-14T06:25:38;99013.50;;;-0.66;100.00
22550;BME280;11441;57.164;-2.120;2023-03-14T06:28:05;99025.59;;;-0.72;100.00
22550;BME280;11441;57.164;-2.120;2023-03-14T06:30:33;99027.97;;;-0.70;100.00
22550;BME280;11441;57.164;-2.120;2023-03-14T06:33:00;99036.69;;;-0.65;100.00
22550;BME280;11441;57.164;-2.120;2023-03-14T06:35:28;99035.13;;;-0.66;100.00
22550;BME280;11441;57.164;-2.120;2023-03-14T06:37:55;99050.88;;;-0.68;100.00
22550;BME280;11441;57.164;-2.120;2023-03-14T06:40:21;99046.56;;;-0.51;100.00
22550;BME280;11441;57.164;-2.120;2023-03-14T06:42:53;99039.88;;;-0.54;100.00
22550;BME280;11441;57.164;-2.120;2023-03-14T06:45:21;99031.16;;;-0.95;100.00
22550;BME280;11441;57.164;-2.120;2023-03-14T06:50:54;99047.66;;;-0.52;100.00
22550;BME280;11441;57.164;-2.120;2023-03-14T06:53:22;99037.19;;;-0.63;100.00
22550;BME280;11441;57.164;-2.120;2023-03-14T06:55:49;99029.53;;;-0.52;100.00
22550;BME280;11441;57.164;-2.120;2023-03-14T06:58:34;99031.78;;;-0.54;100.00
22550;BME280;11441;57.164;-2.120;2023-03-14T07:04:11;99045.31;;;-0.63;100.00
22550;BME280;11441;57.164;-2.120;2023-03-14T07:06:42;99044.63;;;-0.51;100.00
22550;BME280;11441;57.164;-2.120;2023-03-14T07:09:11;99049.41;;;-0.48;100.00
22550;BME280;11441;57.164;-2.120;2023-03-14T07:11:43;99049.88;;;-0.46;100.00
22550;BME280;11441;57.164;-2.120;2023-03-14T07:14:10;99057.53;;;-0.57;100.00
22550;BME280;11441;57.164;-2.120;2023-03-14T07:16:55;99064.22;;;-0.45;100.00
22550;BME280;11441;57.164;-2.120;2023-03-14T07:19:22;99066.53;;;-0.26;100.00
22550;BME280;11441;57.164;-2.120;2023-03-14T07:21:49;99074.03;;;-0.32;100.00
22550;BME280;11441;57.164;-2.120;2023-03-14T07:24:20;99081.66;;;-0.25;100.00
22550;BME280;11441;57.164;-2.120;2023-03-14T07:26:48;99076.09;;;-0.29;100.00
22550;BME280;11441;57.164;-2.120;2023-03-14T07:29:15;99076.44;;;-0.30;100.00
22550;BME280;11441;57.164;-2.120;2023-03-14T07:31:42;99084.84;;;-0.23;100.00
22550;BME280;11441;57.164;-2.120;2023-03-14T07:34:09;99081.38;;;-0.32;100.00
22550;BME280;11441;57.164;-2.120;2023-03-14T07:36:39;99097.53;;;-0.06;100.00
22550;BME280;11441;57.164;-2.120;2023-03-14T07:39:06;99103.88;;;0.07;100.00
22550;BME280;11441;57.164;-2.120;2023-03-14T07:41:33;99114.38;;;0.08;100.00
22550;BME280;11441;57.164;-2.120;2023-03-14T07:44:38;99116.38;;;0.29;100.00
22550;BME280;11441;57.164;-2.120;2023-03-14T07:47:05;99140.03;;;0.11;100.00
22550;BME280;11441;57.164;-2.120;2023-03-14T07:49:32;99125.59;;;0.36;100.00
22550;BME280;11441;57.164;-2.120;2023-03-14T07:51:59;99138.88;;;0.21;100.00
22550;BME280;11441;57.164;-2.120;2023-03-14T07:54:26;99127.94;;;0.47;100.00
22550;BME280;11441;57.164;-2.120;2023-03-14T07:57:11;99123.78;;;0.49;100.00
22550;BME280;11441;57.164;-2.120;2023-03-14T07:59:38;99132.09;;;0.44;100.00
22550;BME280;11441;57.164;-2.120;2023-03-14T08:02:04;99122.47;;;0.55;100.00
22550;BME280;11441;57.164;-2.120;2023-03-14T08:04:36;99126.00;;;0.56;100.00
22550;BME280;11441;57.164;-2.120;2023-03-14T08:07:03;99137.16;;;0.54;100.00
22550;BME280;11441;57.164;-2.120;2023-03-14T08:09:30;99138.22;;;0.62;100.00
22550;BME280;11441;57.164;-2.120;2023-03-14T08:11:57;99134.19;;;0.39;100.00
22550;BME280;11441;57.164;-2.120;2023-03-14T08:14:24;99140.50;;;0.51;100.00
22550;BME280;11441;57.164;-2.120;2023-03-14T08:16:51;99137.16;;;0.54;100.00
22550;BME280;11441;57.164;-2.120;2023-03-14T08:19:18;99148.50;;;0.48;100.00
22550;BME280;11441;57.164;-2.120;2023-03-14T08:21:44;99125.84;;;0.52;100.00
22550;BME280;11441;57.164;-2.120;2023-03-14T08:24:11;99148.19;;;0.79;100.00
22550;BME280;11441;57.164;-2.120;2023-03-14T08:26:38;99155.22;;;0.80;100.00
22550;BME280;11441;57.164;-2.120;2023-03-14T08:29:05;99158.84;;;0.54;100.00
22550;BME280;11441;57.164;-2.120;2023-03-14T08:31:32;99168.00;;;0.71;100.00
22550;BME280;11441;57.164;-2.120;2023-03-14T08:33:59;99166.06;;;0.80;100.00
22550;BME280;11441;57.164;-2.120;2023-03-14T08:36:26;99178.84;;;0.71;100.00
22550;BME280;11441;57.164;-2.120;2023-03-14T08:38:53;99173.50;;;0.83;100.00
22550;BME280;11441;57.164;-2.120;2023-03-14T08:41:20;99175.84;;;0.93;100.00
22550;BME280;11441;57.164;-2.120;2023-03-14T08:43:47;99174.69;;;1.03;100.00
22550;BME280;11441;57.164;-2.120;2023-03-14T08:46:13;99183.75;;;1.07;100.00
22550;BME280;11441;57.164;-2.120;2023-03-14T08:48:40;99182.50;;;1.05;100.00
22550;BME280;11441;57.164;-2.120;2023-03-14T08:51:12;99188.25;;;1.03;100.00
22550;BME280;11441;57.164;-2.120;2023-03-14T08:53:40;99182.78;;;1.12;100.00
22550;BME280;11441;57.164;-2.120;2023-03-14T08:56:08;99191.25;;;1.10;100.00
22550;BME280;11441;57.164;-2.120;2023-03-14T08:58:37;99192.28;;;1.18;100.00
22550;BME280;11441;57.164;-2.120;2023-03-14T09:01:05;99193.06;;;1.27;100.00
22550;BME280;11441;57.164;-2.120;2023-03-14T09:03:32;99200.38;;;1.27;100.00
22550;BME280;11441;57.164;-2.120;2023-03-14T09:06:08;99209.25;;;1.15;100.00
22550;BME280;11441;57.164;-2.120;2023-03-14T09:08:35;99200.47;;;1.39;100.00
22550;BME280;11441;57.164;-2.120;2023-03-14T09:11:07;99215.38;;;1.54;100.00
22550;BME280;11441;57.164;-2.120;2023-03-14T09:13:35;99216.53;;;1.65;100.00
22550;BME280;11441;57.164;-2.120;2023-03-14T09:16:03;99221.38;;;1.60;100.00
22550;BME280;11441;57.164;-2.120;2023-03-14T09:18:30;99217.22;;;1.62;100.00
22550;BME280;11441;57.164;-2.120;2023-03-14T09:20:56;99214.56;;;1.75;100.00
22550;BME280;11441;57.164;-2.120;2023-03-14T09:23:23;99222.16;;;1.39;100.00
22550;BME280;11441;57.164;-2.120;2023-03-14T09:25:57;99217.16;;;1.92;100.00
22550;BME280;11441;57.164;-2.120;2023-03-14T09:28:24;99224.28;;;1.76;100.00
22550;BME280;11441;57.164;-2.120;2023-03-14T09:30:51;99232.44;;;1.76;100.00
22550;BME280;11441;57.164;-2.120;2023-03-14T09:33:18;99236.44;;;1.78;100.00
22550;BME280;11441;57.164;-2.120;2023-03-14T09:35:45;99233.69;;;1.99;100.00
22550;BME280;11441;57.164;-2.120;2023-03-14T09:38:12;99255.38;;;1.66;100.00
22550;BME280;11441;57.164;-2.120;2023-03-14T09:40:40;99274.84;;;1.38;100.00
22550;BME280;11441;57.164;-2.120;2023-03-14T09:43:13;99279.03;;;0.97;100.00
22550;BME280;11441;57.164;-2.120;2023-03-14T09:45:41;99262.28;;;0.95;100.00
22550;BME280;11441;57.164;-2.120;2023-03-14T09:48:19;99275.50;;;1.05;100.00
22550;BME280;11441;57.164;-2.120;2023-03-14T09:50:53;99279.88;;;0.89;100.00
22550;BME280;11441;57.164;-2.120;2023-03-14T09:53:42;99274.44;;;0.89;100.00
22550;BME280;11441;57.164;-2.120;2023-03-14T09:56:13;99287.72;;;0.73;100.00
22550;BME280;11441;57.164;-2.120;2023-03-14T09:58:42;99280.06;;;0.75;100.00
22550;BME280;11441;57.164;-2.120;2023-03-14T10:01:14;99305.75;;;0.69;100.00
22550;BME280;11441;57.164;-2.120;2023-03-14T10:03:45;99326.94;;;0.75;100.00
22550;BME280;11441;57.164;-2.120;2023-03-14T10:06:13;99322.16;;;0.64;100.00
22550;BME280;11441;57.164;-2.120;2023-03-14T10:08:44;99352.59;;;0.78;100.00
22550;BME280;11441;57.164;-2.120;2023-03-14T10:11:17;99358.50;;;0.89;100.00
22550;BME280;11441;57.164;-2.120;2023-03-14T10:14:05;99369.03;;;0.73;100.00
22550;BME280;11441;57.164;-2.120;2023-03-14T10:16:50;99359.78;;;0.74;100.00
22550;BME280;11441;57.164;-2.120;2023-03-14T10:19:17;99359.91;;;0.86;100.00
22550;BME280;11441;57.164;-2.120;2023-03-14T10:21:50;99364.09;;;0.75;100.00
22550;BME280;11441;57.164;-2.120;2023-03-14T10:24:36;99379.03;;;0.99;100.00
22550;BME280;11441;57.164;-2.120;2023-03-14T10:27:08;99393.34;;;1.08;100.00
22550;BME280;11441;57.164;-2.120;2023-03-14T10:29:59;99393.97;;;1.22;100.00
22550;BME280;11441;57.164;-2.120;2023-03-14T10:32:37;99426.13;;;1.50;100.00
22550;BME280;11441;57.164;-2.120;2023-03-14T10:37:33;99431.44;;;1.76;100.00
22550;BME280;11441;57.164;-2.120;2023-03-14T10:40:01;99447.22;;;1.74;100.00
22550;BME280;11441;57.164;-2.120;2023-03-14T10:42:34;99452.47;;;1.79;100.00
22550;BME280;11441;57.164;-2.120;2023-03-14T10:47:58;99463.75;;;1.99;100.00
22550;BME280;11441;57.164;-2.120;2023-03-14T10:50:28;99486.00;;;2.22;100.00
22550;BME280;11441;57.164;-2.120;2023-03-14T10:52:57;99496.34;;;1.99;100.00
22550;BME280;11441;57.164;-2.120;2023-03-14T10:55:42;99498.34;;;2.11;100.00
22550;BME280;11441;57.164;-2.120;2023-03-14T10:58:31;99495.44;;;2.16;100.00
22550;BME280;11441;57.164;-2.120;2023-03-14T11:01:22;99499.72;;;2.25;100.00
22550;BME280;11441;57.164;-2.120;2023-03-14T11:04:01;99503.84;;;2.32;100.00
22550;BME280;11441;57.164;-2.120;2023-03-14T11:09:18;99522.28;;;2.47;100.00
22550;BME280;11441;57.164;-2.120;2023-03-14T11:12:31;99524.69;;;2.49;100.00
22550;BME280;11441;57.164;-2.120;2023-03-14T11:15:08;99520.91;;;2.62;100.00
22550;BME280;11441;57.164;-2.120;2023-03-14T11:23:20;99545.34;;;2.41;100.00
22550;BME280;11441;57.164;-2.120;2023-03-14T11:26:19;99529.69;;;2.38;100.00
22550;BME280;11441;57.164;-2.120;2023-03-14T11:28:43;99519.34;;;2.31;100.00
22550;BME280;11441;57.164;-2.120;2023-03-14T11:31:31;99533.84;;;2.44;100.00
22550;BME280;11441;57.164;-2.120;2023-03-14T11:36:53;99545.94;;;2.76;100.00
22550;BME280;11441;57.164;-2.120;2023-03-14T11:39:23;99545.78;;;2.73;100.00
22550;BME280;11441;57.164;-2.120;2023-03-14T11:41:53;99554.09;;;2.97;100.00
22550;BME280;11441;57.164;-2.120;2023-03-14T11:44:34;99558.41;;;2.77;100.00
22550;BME280;11441;57.164;-2.120;2023-03-14T11:52:04;99579.91;;;3.12;100.00
22550;BME280;11441;57.164;-2.120;2023-03-14T11:54:52;99601.63;;;3.00;100.00
22550;BME280;11441;57.164;-2.120;2023-03-14T11:57:21;99587.34;;;3.24;100.00
22550;BME280;11441;57.164;-2.120;2023-03-14T12:02:22;99597.47;;;3.36;100.00
22550;BME280;11441;57.164;-2.120;2023-03-14T12:07:39;99616.16;;;3.04;100.00
22550;BME280;11441;57.164;-2.120;2023-03-14T12:10:10;99621.31;;;2.67;100.00
22550;BME280;11441;57.164;-2.120;2023-03-14T12:12:37;99614.31;;;2.87;100.00
22550;BME280;11441;57.164;-2.120;2023-03-14T12:15:05;99615.53;;;2.98;100.00
22550;BME280;11441;57.164;-2.120;2023-03-14T12:17:37;99635.84;;;3.01;100.00
22550;BME280;11441;57.164;-2.120;2023-03-14T12:20:18;99605.31;;;3.16;100.00
22550;BME280;11441;57.164;-2.120;2023-03-14T12:22:52;99628.97;;;3.25;100.00
22550;BME280;11441;57.164;-2.120;2023-03-14T12:25:26;99635.66;;;3.27;100.00
22550;BME280;11441;57.164;-2.120;2023-03-14T12:30:39;99626.59;;;3.77;100.00
22550;BME280;11441;57.164;-2.120;2023-03-14T12:38:18;99652.53;;;3.63;100.00
22550;BME280;11441;57.164;-2.120;2023-03-14T12:43:35;99667.78;;;3.55;100.00
22550;BME280;11441;57.164;-2.120;2023-03-14T12:48:40;99682.16;;;3.64;100.00
22550;BME280;11441;57.164;-2.120;2023-03-14T12:51:36;99681.41;;;3.76;100.00
22550;BME280;11441;57.164;-2.120;2023-03-14T12:57:13;99674.78;;;3.65;100.00
22550;BME280;11441;57.164;-2.120;2023-03-14T12:59:50;99710.31;;;3.47;100.00
22550;BME280;11441;57.164;-2.120;2023-03-14T13:02:43;99715.63;;;2.84;100.00
22550;BME280;11441;57.164;-2.120;2023-03-14T13:05:22;99729.41;;;2.79;100.00
22550;BME280;11441;57.164;-2.120;2023-03-14T13:15:45;99717.22;;;2.85;100.00
22550;BME280;11441;57.164;-2.120;2023-03-14T13:18:16;99721.53;;;2.86;100.00
22550;BME280;11441;57.164;-2.120;2023-03-14T13:20:51;99727.78;;;2.87;100.00
22550;BME280;11441;57.164;-2.120;2023-03-14T13:23:23;99734.25;;;2.56;100.00
22550;BME280;11441;57.164;-2.120;2023-03-14T13:26:13;99746.84;;;2.78;100.00
22550;BME280;11441;57.164;-2.120;2023-03-14T13:28:41;99746.16;;;2.42;100.00
22550;BME280;11441;57.164;-2.120;2023-03-14T13:31:35;99749.06;;;2.85;100.00
22550;BME280;11441;57.164;-2.120;2023-03-14T13:34:06;99752.00;;;2.62;100.00
22550;BME280;11441;57.164;-2.120;2023-03-14T13:36:35;99753.84;;;2.88;100.00
22550;BME280;11441;57.164;-2.120;2023-03-14T13:39:02;99752.03;;;3.30;100.00
22550;BME280;11441;57.164;-2.120;2023-03-14T13:41:32;99747.06;;;3.32;100.00
22550;BME280;11441;57.164;-2.120;2023-03-14T13:44:07;99738.28;;;3.27;100.00
22550;BME280;11441;57.164;-2.120;2023-03-14T13:46:35;99762.16;;;3.51;100.00
22550;BME280;11441;57.164;-2.120;2023-03-14T13:49:10;99757.25;;;3.44;100.00
22550;BME280;11441;57.164;-2.120;2023-03-14T13:51:39;99760.50;;;3.58;100.00
22550;BME280;11441;57.164;-2.120;2023-03-14T13:54:18;99759.31;;;3.47;100.00
22550;BME280;11441;57.164;-2.120;2023-03-14T13:56:45;99786.06;;;3.45;100.00
22550;BME280;11441;57.164;-2.120;2023-03-14T14:02:17;99775.41;;;3.61;100.00
22550;BME280;11441;57.164;-2.120;2023-03-14T14:04:44;99772.88;;;3.56;100.00
22550;BME280;11441;57.164;-2.120;2023-03-14T14:07:16;99788.97;;;3.70;100.00
22550;BME280;11441;57.164;-2.120;2023-03-14T14:09:51;99787.63;;;3.76;100.00
22550;BME280;11441;57.164;-2.120;2023-03-14T14:12:32;99780.13;;;3.73;100.00
22550;BME280;11441;57.164;-2.120;2023-03-14T14:15:05;99789.69;;;4.21;100.00
22550;BME280;11441;57.164;-2.120;2023-03-14T14:17:40;99780.47;;;4.13;100.00
22550;BME280;11441;57.164;-2.120;2023-03-14T14:22:48;99818.75;;;4.17;100.00
22550;BME280;11441;57.164;-2.120;2023-03-14T14:25:16;99810.50;;;4.05;100.00
22550;BME280;11441;57.164;-2.120;2023-03-14T14:27:46;99828.44;;;4.48;100.00
22550;BME280;11441;57.164;-2.120;2023-03-14T14:32:44;99821.63;;;4.54;100.00